createdAt,value
2023-05-09T00:00:02.098Z,19.97
2023-05-09T00:02:30.360Z,19.98
2023-05-09T00:04:57.948Z,19.86
2023-05-09T00:07:25.587Z,19.87
2023-05-09T00:09:53.444Z,19.83
2023-05-09T00:12:20.877Z,19.80
2023-05-09T00:14:51.786Z,19.89
2023-05-09T00:17:19.481Z,19.89
2023-05-09T00:19:47.849Z,19.92
2023-05-09T00:22:16.140Z,19.91
2023-05-09T00:24:43.285Z,19.99
2023-05-09T00:27:11.141Z,19.96
2023-05-09T00:29:39.021Z,19.90
2023-05-09T00:32:06.751Z,19.90
2023-05-09T00:34:34.758Z,19.93
2023-05-09T00:37:02.303Z,19.92
2023-05-09T00:39:30.281Z,19.97
2023-05-09T00:41:57.745Z,19.93
2023-05-09T00:44:25.378Z,19.92
2023-05-09T00:46:52.887Z,19.93
2023-05-09T00:49:20.623Z,19.91
2023-05-09T00:51:48.036Z,19.82
2023-05-09T00:54:19.506Z,19.72
2023-05-09T00:56:47.478Z,19.81
2023-05-09T00:59:16.969Z,19.78
2023-05-09T01:01:45.606Z,19.80
2023-05-09T01:04:13.033Z,19.73
2023-05-09T01:07:06.634Z,19.78
2023-05-09T01:10:01.158Z,19.77
2023-05-09T01:12:48.239Z,19.70
2023-05-09T01:15:24.414Z,19.68
2023-05-09T01:18:04.290Z,19.65
2023-05-09T01:20:39.429Z,19.61
2023-05-09T01:23:12.827Z,19.60
2023-05-09T01:25:42.821Z,19.62
2023-05-09T01:28:35.764Z,19.56
2023-05-09T01:31:03.702Z,19.57
2023-05-09T01:33:31.493Z,19.58
2023-05-09T01:36:04.014Z,19.57
2023-05-09T01:38:37.053Z,19.56
2023-05-09T01:41:07.478Z,19.63
2023-05-09T01:43:35.477Z,19.58
2023-05-09T01:46:03.480Z,19.56
2023-05-09T01:48:30.940Z,19.61
2023-05-09T01:50:58.726Z,19.52
2023-05-09T01:53:25.834Z,19.54
2023-05-09T01:55:53.902Z,19.61
2023-05-09T01:58:20.541Z,19.58
2023-05-09T02:00:48.387Z,19.59
2023-05-09T02:03:15.961Z,19.56
2023-05-09T02:05:43.959Z,19.56
2023-05-09T02:08:14.480Z,19.56
2023-05-09T02:10:42.692Z,19.44
2023-05-09T02:13:10.322Z,19.42
2023-05-09T02:15:38.218Z,19.48
2023-05-09T02:18:06.800Z,19.45
2023-05-09T02:20:36.058Z,19.42
2023-05-09T02:23:04.062Z,19.47
2023-05-09T02:25:32.324Z,19.52
2023-05-09T02:27:59.603Z,19.45
2023-05-09T02:30:27.135Z,19.42
2023-05-09T02:33:02.601Z,19.43
2023-05-09T02:35:30.983Z,19.43
2023-05-09T02:37:58.240Z,19.45
2023-05-09T02:40:25.953Z,19.47
2023-05-09T02:42:53.913Z,19.47
2023-05-09T02:45:22.110Z,19.45
2023-05-09T02:47:50.453Z,19.43
2023-05-09T02:50:17.984Z,19.55
2023-05-09T02:52:45.961Z,19.54
2023-05-09T02:55:13.742Z,19.52
2023-05-09T02:57:41.318Z,19.43
2023-05-09T03:00:09.822Z,19.52
2023-05-09T03:02:38.410Z,19.54
2023-05-09T03:05:07.822Z,19.58
2023-05-09T03:07:35.434Z,19.59
2023-05-09T03:10:02.751Z,19.57
2023-05-09T03:12:30.365Z,19.56
2023-05-09T03:14:57.758Z,19.54
2023-05-09T03:17:25.570Z,19.50
2023-05-09T03:19:53.424Z,19.45
2023-05-09T03:22:21.205Z,19.48
2023-05-09T03:24:48.684Z,19.49
2023-05-09T03:27:16.757Z,19.49
2023-05-09T03:29:44.643Z,19.47
2023-05-09T03:32:13.943Z,19.52
2023-05-09T03:34:43.187Z,19.49
2023-05-09T03:37:11.018Z,19.47
2023-05-09T03:39:38.908Z,19.39
2023-05-09T03:42:06.999Z,19.39
2023-05-09T03:44:34.820Z,19.45
2023-05-09T03:47:03.109Z,19.47
2023-05-09T03:49:30.749Z,19.51
2023-05-09T03:51:58.115Z,19.53
2023-05-09T03:54:25.761Z,19.53
2023-05-09T03:56:53.986Z,19.49
2023-05-09T03:59:21.594Z,19.42
2023-05-09T04:01:49.416Z,19.39
2023-05-09T04:04:17.056Z,19.36
2023-05-09T04:06:45.310Z,19.30
2023-05-09T04:09:12.649Z,19.28
2023-05-09T04:11:40.657Z,19.28
2023-05-09T04:14:08.299Z,19.30
2023-05-09T04:16:36.936Z,19.30
2023-05-09T04:19:07.540Z,19.29
2023-05-09T04:21:35.240Z,19.24
2023-05-09T04:24:03.020Z,19.28
2023-05-09T04:26:31.556Z,19.29
2023-05-09T04:28:59.378Z,19.18
2023-05-09T04:31:27.135Z,19.16
2023-05-09T04:33:54.664Z,19.16
2023-05-09T04:36:22.183Z,19.09
2023-05-09T04:38:49.767Z,19.04
2023-05-09T04:41:17.234Z,19.02
2023-05-09T04:43:45.311Z,18.98
2023-05-09T04:46:13.282Z,19.06
2023-05-09T04:48:41.537Z,19.12
2023-05-09T04:51:09.485Z,19.09
2023-05-09T04:53:37.548Z,19.06
2023-05-09T04:56:05.331Z,19.04
2023-05-09T04:58:34.491Z,19.04
2023-05-09T05:01:02.364Z,19.02
2023-05-09T05:03:30.145Z,18.99
2023-05-09T05:05:57.588Z,18.97
2023-05-09T05:08:25.411Z,18.94
2023-05-09T05:10:53.265Z,18.95
2023-05-09T05:13:21.595Z,18.93
2023-05-09T05:15:49.776Z,18.94
2023-05-09T05:18:17.321Z,18.97
2023-05-09T05:20:44.696Z,19.01
2023-05-09T05:23:12.291Z,19.07
2023-05-09T05:25:40.697Z,18.94
2023-05-09T05:28:08.255Z,18.95
2023-05-09T05:30:56.185Z,19.01
2023-05-09T05:33:23.995Z,19.03
2023-05-09T05:35:51.825Z,19.25
2023-05-09T05:38:19.733Z,19.30
2023-05-09T05:40:47.768Z,19.43
2023-05-09T05:43:15.607Z,19.40
2023-05-09T05:45:43.619Z,19.44
2023-05-09T05:48:11.556Z,19.49
2023-05-09T05:50:39.420Z,19.42
2023-05-09T05:53:07.053Z,19.64
2023-05-09T05:55:34.522Z,19.76
2023-05-09T05:58:02.459Z,19.87
2023-05-09T06:00:30.223Z,19.96
2023-05-09T06:02:58.284Z,19.98
2023-05-09T06:05:27.227Z,20.05
2023-05-09T06:07:55.169Z,20.09
2023-05-09T06:10:23.631Z,20.09
2023-05-09T06:12:51.522Z,20.16
2023-05-09T06:15:19.356Z,20.22
2023-05-09T06:17:47.371Z,20.34
2023-05-09T06:20:15.277Z,20.40
2023-05-09T06:22:42.757Z,20.47
2023-05-09T06:25:10.963Z,20.53
2023-05-09T06:27:38.931Z,20.58
2023-05-09T06:30:23.863Z,20.62
2023-05-09T06:32:53.987Z,20.66
2023-05-09T06:35:21.984Z,20.60
2023-05-09T06:37:50.130Z,20.64
2023-05-09T06:40:18.167Z,20.69
2023-05-09T06:42:46.167Z,20.76
2023-05-09T06:45:13.872Z,20.81
2023-05-09T06:47:41.875Z,20.84
2023-05-09T06:50:11.450Z,20.80
2023-05-09T06:52:39.348Z,20.88
2023-05-09T06:55:10.720Z,20.97
2023-05-09T06:57:38.700Z,20.98
2023-05-09T07:00:09.501Z,21.06
2023-05-09T07:02:37.177Z,21.14
2023-05-09T07:05:06.220Z,21.24
2023-05-09T07:07:34.145Z,21.38
2023-05-09T07:10:11.425Z,21.49
2023-05-09T07:12:40.158Z,21.64
2023-05-09T07:15:11.261Z,21.70
2023-05-09T07:17:39.227Z,21.71
2023-05-09T07:20:09.324Z,21.80
2023-05-09T07:22:41.105Z,21.92
2023-05-09T07:25:10.273Z,22.00
2023-05-09T07:27:38.153Z,22.07
2023-05-09T07:30:09.159Z,22.06
2023-05-09T07:32:36.653Z,22.04
2023-05-09T07:35:04.862Z,22.00
2023-05-09T07:37:33.222Z,22.04
2023-05-09T07:40:01.000Z,22.15
2023-05-09T07:42:30.332Z,22.17
2023-05-09T07:44:59.119Z,22.21
2023-05-09T07:47:26.879Z,22.17
2023-05-09T07:49:54.380Z,22.16
2023-05-09T07:52:21.869Z,22.18
2023-05-09T07:54:49.412Z,22.20
2023-05-09T07:57:17.267Z,22.18
2023-05-09T07:59:45.257Z,22.16
2023-05-09T08:02:12.724Z,22.08
2023-05-09T08:04:41.724Z,22.07
2023-05-09T08:07:09.816Z,22.03
2023-05-09T08:09:37.620Z,22.08
2023-05-09T08:12:06.866Z,22.54
2023-05-09T08:14:34.621Z,22.82
2023-05-09T08:17:05.608Z,23.06
2023-05-09T08:19:33.158Z,23.27
2023-05-09T08:22:00.895Z,23.48
2023-05-09T08:24:28.470Z,23.59
2023-05-09T08:26:56.267Z,23.65
2023-05-09T08:29:23.888Z,23.84
2023-05-09T08:31:51.653Z,24.03
2023-05-09T08:34:19.617Z,24.23
2023-05-09T08:36:47.129Z,24.17
2023-05-09T08:39:14.968Z,24.12
2023-05-09T08:41:42.565Z,24.16
2023-05-09T08:44:09.713Z,24.30
2023-05-09T08:46:37.710Z,24.36
2023-05-09T08:49:07.179Z,24.33
2023-05-09T08:51:35.275Z,24.30
2023-05-09T08:54:03.421Z,24.46
2023-05-09T08:56:31.864Z,24.67
2023-05-09T08:58:59.788Z,24.72
2023-05-09T09:01:27.361Z,24.72
2023-05-09T09:03:55.516Z,24.82
2023-05-09T09:06:23.035Z,24.77
2023-05-09T09:08:51.026Z,24.90
2023-05-09T09:11:18.851Z,24.93
2023-05-09T09:13:46.167Z,24.95
2023-05-09T09:16:17.006Z,25.02
2023-05-09T09:18:44.024Z,25.09
2023-05-09T09:21:14.112Z,25.07
2023-05-09T09:23:41.641Z,25.05
2023-05-09T09:26:09.099Z,24.99
2023-05-09T09:28:36.954Z,24.99
2023-05-09T09:31:04.153Z,24.88
2023-05-09T09:33:32.032Z,24.77
2023-05-09T09:35:59.822Z,24.73
2023-05-09T09:38:27.537Z,24.53
2023-05-09T09:40:56.618Z,24.40
2023-05-09T09:43:30.901Z,24.30
2023-05-09T09:46:01.608Z,24.22
2023-05-09T09:48:33.671Z,24.35
2023-05-09T09:51:46.204Z,24.47
2023-05-09T09:54:13.489Z,24.58
2023-05-09T09:56:51.132Z,24.62
2023-05-09T09:59:20.481Z,24.69
2023-05-09T10:02:07.021Z,24.73
2023-05-09T10:04:37.269Z,24.72
2023-05-09T10:07:06.335Z,24.79
2023-05-09T10:09:34.738Z,24.89
2023-05-09T10:12:25.462Z,24.78
2023-05-09T10:14:52.919Z,24.88
2023-05-09T10:17:20.945Z,24.88
2023-05-09T10:19:47.910Z,24.91
2023-05-09T10:22:16.523Z,24.96
2023-05-09T10:25:00.164Z,24.99
2023-05-09T10:27:28.217Z,24.98
2023-05-09T10:30:04.875Z,25.03
2023-05-09T10:33:09.697Z,25.06
2023-05-09T10:35:37.481Z,24.93
2023-05-09T10:38:05.030Z,25.08
2023-05-09T10:40:32.013Z,25.11
2023-05-09T10:43:01.832Z,25.20
2023-05-09T10:45:29.804Z,25.40
2023-05-09T10:47:57.108Z,25.78
2023-05-09T10:50:24.882Z,26.18
2023-05-09T10:53:17.234Z,26.55
2023-05-09T10:55:59.116Z,26.74
2023-05-09T10:58:33.759Z,26.82
2023-05-09T11:01:01.758Z,26.76
2023-05-09T11:03:31.027Z,26.73
2023-05-09T11:05:58.980Z,26.66
2023-05-09T11:08:33.334Z,26.43
2023-05-09T11:11:10.205Z,26.45
2023-05-09T11:13:40.659Z,26.41
2023-05-09T11:16:11.471Z,26.55
2023-05-09T11:18:52.012Z,26.51
2023-05-09T11:21:20.499Z,26.58
2023-05-09T11:23:48.276Z,26.51
2023-05-09T11:26:16.661Z,26.62
2023-05-09T11:28:43.599Z,26.55
2023-05-09T11:31:13.220Z,26.57
2023-05-09T11:33:40.764Z,26.60
2023-05-09T11:36:27.868Z,26.76
2023-05-09T11:39:09.143Z,27.12
2023-05-09T11:41:43.777Z,27.25
2023-05-09T11:44:37.353Z,27.17
2023-05-09T11:47:04.724Z,27.71
2023-05-09T11:49:32.301Z,27.79
2023-05-09T11:52:01.133Z,28.23
2023-05-09T11:54:29.089Z,28.77
2023-05-09T11:56:56.704Z,29.28
2023-05-09T11:59:24.741Z,29.67
2023-05-09T12:01:51.920Z,29.88
2023-05-09T12:04:19.919Z,30.04
2023-05-09T12:06:50.557Z,30.63
2023-05-09T12:09:20.037Z,30.43
2023-05-09T12:11:50.872Z,30.98
2023-05-09T12:14:50.778Z,31.44
2023-05-09T12:17:18.615Z,32.07
2023-05-09T12:19:46.508Z,32.15
2023-05-09T12:22:14.161Z,31.35
2023-05-09T12:24:41.972Z,30.72
2023-05-09T12:27:09.707Z,30.50
2023-05-09T12:29:37.109Z,30.58
2023-05-09T12:32:06.155Z,29.89
2023-05-09T12:34:34.171Z,30.16
2023-05-09T12:37:05.798Z,30.94
2023-05-09T12:39:33.661Z,31.90
2023-05-09T12:42:02.223Z,31.34
2023-05-09T12:44:30.379Z,30.44
2023-05-09T12:47:23.613Z,31.37
2023-05-09T12:49:51.190Z,31.87
2023-05-09T12:52:21.869Z,32.57
2023-05-09T12:54:49.691Z,33.09
2023-05-09T12:57:30.127Z,33.61
2023-05-09T13:00:02.462Z,34.19
2023-05-09T13:02:34.959Z,34.90
2023-05-09T13:05:11.674Z,35.52
2023-05-09T13:08:05.536Z,36.21
2023-05-09T13:10:33.052Z,36.34
2023-05-09T13:13:00.777Z,35.91
2023-05-09T13:15:29.699Z,35.50
2023-05-09T13:17:57.660Z,35.38
2023-05-09T13:20:25.796Z,35.51
2023-05-09T13:22:53.326Z,34.58
2023-05-09T13:25:21.606Z,33.40
2023-05-09T13:27:49.684Z,33.04
2023-05-09T13:30:20.022Z,33.79
2023-05-09T13:32:47.745Z,34.45
2023-05-09T13:35:16.599Z,35.05
2023-05-09T13:37:44.586Z,35.33
2023-05-09T13:40:14.250Z,35.86
2023-05-09T13:42:42.033Z,36.31
2023-05-09T13:45:12.003Z,36.87
2023-05-09T13:47:40.166Z,36.59
2023-05-09T13:50:10.142Z,35.23
2023-05-09T13:52:38.042Z,34.62
2023-05-09T13:55:07.382Z,34.58
2023-05-09T13:57:35.108Z,35.05
2023-05-09T14:00:03.265Z,35.04
2023-05-09T14:02:31.241Z,34.63
2023-05-09T14:04:59.136Z,33.59
2023-05-09T14:07:26.475Z,32.45
2023-05-09T14:10:04.842Z,31.56
2023-05-09T14:12:39.663Z,30.84
2023-05-09T14:15:11.441Z,30.24
2023-05-09T14:17:39.790Z,29.91
2023-05-09T14:20:10.315Z,29.79
2023-05-09T14:22:37.946Z,30.13
2023-05-09T14:25:06.915Z,30.27
2023-05-09T14:27:37.341Z,30.38
2023-05-09T14:30:05.459Z,30.61
2023-05-09T14:32:33.327Z,30.88
2023-05-09T14:35:01.204Z,31.14
2023-05-09T14:37:29.361Z,31.93
2023-05-09T14:40:05.316Z,33.14
2023-05-09T14:42:33.441Z,34.03
2023-05-09T14:45:01.070Z,34.82
2023-05-09T14:47:28.599Z,35.03
2023-05-09T14:49:56.694Z,34.54
2023-05-09T14:52:24.656Z,33.88
2023-05-09T14:54:52.555Z,33.23
2023-05-09T14:57:20.364Z,32.82
2023-05-09T14:59:48.642Z,31.86
2023-05-09T15:02:16.547Z,31.19
2023-05-09T15:04:44.901Z,30.80
2023-05-09T15:07:32.458Z,30.49
2023-05-09T15:10:00.316Z,30.39
2023-05-09T15:12:28.215Z,30.55
2023-05-09T15:14:58.740Z,30.98
2023-05-09T15:17:26.546Z,31.70
2023-05-09T15:19:54.415Z,32.45
2023-05-09T15:22:22.330Z,32.74
2023-05-09T15:24:50.489Z,33.22
2023-05-09T15:27:18.631Z,33.53
2023-05-09T15:29:46.863Z,34.07
2023-05-09T15:32:14.601Z,34.82
2023-05-09T15:34:42.537Z,35.51
2023-05-09T15:37:10.051Z,35.77
2023-05-09T15:39:42.361Z,35.23
2023-05-09T15:42:12.261Z,34.37
2023-05-09T15:44:47.304Z,32.82
2023-05-09T15:47:14.535Z,32.25
2023-05-09T15:49:42.447Z,31.98
2023-05-09T15:52:10.388Z,31.78
2023-05-09T15:54:37.885Z,31.88
2023-05-09T15:57:05.346Z,31.90
2023-05-09T15:59:33.376Z,32.06
2023-05-09T16:02:01.435Z,32.05
2023-05-09T16:04:29.464Z,32.11
2023-05-09T16:06:59.963Z,32.06
2023-05-09T16:09:28.643Z,31.73
2023-05-09T16:11:56.449Z,31.24
2023-05-09T16:14:24.385Z,30.88
2023-05-09T16:16:55.279Z,30.57
2023-05-09T16:19:22.951Z,30.25
2023-05-09T16:21:51.385Z,29.73
2023-05-09T16:24:18.942Z,29.27
2023-05-09T16:26:46.745Z,28.78
2023-05-09T16:29:14.715Z,28.42
2023-05-09T16:31:44.923Z,28.17
2023-05-09T16:34:13.009Z,28.13
2023-05-09T16:36:40.477Z,28.00
2023-05-09T16:39:08.722Z,27.82
2023-05-09T16:41:36.624Z,27.61
2023-05-09T16:44:04.679Z,27.46
2023-05-09T16:46:32.603Z,27.26
2023-05-09T16:49:00.523Z,27.05
2023-05-09T16:51:28.454Z,26.87
2023-05-09T16:53:56.216Z,26.70
2023-05-09T16:56:24.037Z,26.41
2023-05-09T16:58:51.815Z,26.15
2023-05-09T17:01:19.771Z,25.95
2023-05-09T17:03:48.334Z,25.80
2023-05-09T17:06:16.067Z,25.59
2023-05-09T17:08:43.779Z,25.44
2023-05-09T17:11:11.783Z,25.33
2023-05-09T17:13:39.316Z,25.23
2023-05-09T17:16:07.189Z,25.15
2023-05-09T17:18:38.046Z,25.03
2023-05-09T17:21:06.827Z,24.94
2023-05-09T17:23:34.767Z,24.88
2023-05-09T17:26:02.699Z,24.82
2023-05-09T17:28:30.691Z,24.80
2023-05-09T17:30:59.172Z,24.76
2023-05-09T17:36:16.318Z,24.64
2023-05-09T17:38:43.939Z,24.53
2023-05-09T17:41:11.755Z,24.43
2023-05-09T17:43:39.671Z,24.27
2023-05-09T17:46:08.168Z,24.21
2023-05-09T17:48:36.150Z,24.15
2023-05-09T17:51:05.047Z,24.07
2023-05-09T17:53:32.963Z,23.98
2023-05-09T17:56:00.406Z,23.92
2023-05-09T17:58:28.250Z,23.84
2023-05-09T18:00:55.956Z,23.78
2023-05-09T18:03:23.648Z,23.80
2023-05-09T18:05:51.178Z,23.81
2023-05-09T18:08:18.775Z,23.79
2023-05-09T18:10:47.068Z,23.78
2023-05-09T18:13:14.459Z,23.75
2023-05-09T18:15:42.434Z,23.73
2023-05-09T18:18:12.859Z,23.64
2023-05-09T18:20:42.838Z,23.56
2023-05-09T18:23:11.871Z,23.53
2023-05-09T18:25:39.972Z,23.50
2023-05-09T18:28:11.020Z,23.38
2023-05-09T18:30:39.441Z,23.28
2023-05-09T18:33:07.194Z,23.18
2023-05-09T18:35:35.095Z,23.20
2023-05-09T18:38:02.495Z,23.11
2023-05-09T18:40:30.477Z,23.04
2023-05-09T18:42:58.268Z,23.02
2023-05-09T18:45:25.887Z,23.05
2023-05-09T18:47:54.138Z,23.00
2023-05-09T18:50:21.870Z,22.99
2023-05-09T18:52:50.257Z,22.98
2023-05-09T18:55:19.881Z,22.93
2023-05-09T18:57:47.589Z,22.92
2023-05-09T19:00:16.150Z,22.85
2023-05-09T19:02:43.805Z,22.78
2023-05-09T19:05:11.593Z,22.69
2023-05-09T19:07:39.427Z,22.64
2023-05-09T19:10:10.458Z,22.57
2023-05-09T19:12:38.257Z,22.49
2023-05-09T19:15:08.572Z,22.47
2023-05-09T19:17:36.521Z,22.43
2023-05-09T19:20:05.937Z,22.38
2023-05-09T19:22:33.556Z,22.35
2023-05-09T19:25:01.018Z,22.26
2023-05-09T19:27:29.274Z,22.24
2023-05-09T19:29:57.123Z,22.18
2023-05-09T19:32:25.027Z,22.18
2023-05-09T19:34:52.521Z,22.20
2023-05-09T19:37:20.457Z,22.17
2023-05-09T19:39:48.372Z,22.18
2023-05-09T19:42:16.293Z,22.10
2023-05-09T19:44:43.820Z,22.06
2023-05-09T19:47:11.736Z,22.04
2023-05-09T19:49:40.845Z,21.97
2023-05-09T19:52:08.266Z,21.97
2023-05-09T19:54:36.238Z,21.92
2023-05-09T19:57:06.438Z,21.82
2023-05-09T19:59:34.121Z,21.77
2023-05-09T20:02:01.983Z,21.81
2023-05-09T20:04:34.856Z,21.78
2023-05-09T20:07:03.701Z,21.71
2023-05-09T20:09:32.906Z,21.66
2023-05-09T20:12:02.061Z,21.58
2023-05-09T20:14:29.900Z,21.56
2023-05-09T20:16:57.720Z,21.47
2023-05-09T20:19:25.962Z,21.41
2023-05-09T20:21:53.740Z,21.40
2023-05-09T20:24:21.230Z,21.34
2023-05-09T20:26:48.750Z,21.25
2023-05-09T20:29:16.577Z,21.23
2023-05-09T20:31:44.853Z,21.18
2023-05-09T20:34:16.146Z,21.10
2023-05-09T20:36:44.132Z,21.05
2023-05-09T20:39:13.307Z,20.93
2023-05-09T20:41:40.817Z,20.95
2023-05-09T20:44:09.337Z,20.93
2023-05-09T20:46:36.740Z,20.93
2023-05-09T20:49:04.215Z,20.92
2023-05-09T20:51:32.641Z,20.85
2023-05-09T20:53:59.798Z,20.82
2023-05-09T20:56:28.741Z,20.79
2023-05-09T20:58:56.279Z,20.78
2023-05-09T21:01:23.733Z,20.76
2023-05-09T21:03:51.692Z,20.73
2023-05-09T21:06:19.692Z,20.67
2023-05-09T21:08:47.580Z,20.65
2023-05-09T21:11:15.235Z,20.61
2023-05-09T21:13:42.616Z,20.57
2023-05-09T21:16:10.130Z,20.60
2023-05-09T21:18:38.039Z,20.57
2023-05-09T21:21:08.942Z,20.49
2023-05-09T21:23:36.753Z,20.42
2023-05-09T21:26:04.524Z,20.43
2023-05-09T21:28:32.789Z,20.40
2023-05-09T21:31:01.642Z,20.38
2023-05-09T21:33:29.699Z,20.39
2023-05-09T21:35:58.623Z,20.42
2023-05-09T21:38:26.284Z,20.54
2023-05-09T21:40:53.477Z,20.68
2023-05-09T21:43:21.347Z,20.54
2023-05-09T21:45:49.360Z,20.50
2023-05-09T21:48:21.131Z,20.52
2023-05-09T21:50:48.975Z,20.50
2023-05-09T21:53:16.846Z,20.48
2023-05-09T21:55:44.021Z,20.47
2023-05-09T21:58:11.847Z,20.37
2023-05-09T22:00:40.089Z,20.32
2023-05-09T22:03:08.251Z,20.32
2023-05-09T22:05:35.972Z,20.29
2023-05-09T22:08:04.273Z,20.28
2023-05-09T22:10:32.462Z,20.26
2023-05-09T22:13:00.392Z,20.20
2023-05-09T22:15:28.383Z,20.07
2023-05-09T22:17:56.093Z,20.05
2023-05-09T22:20:24.292Z,20.02
2023-05-09T22:22:52.173Z,19.96
2023-05-09T22:25:20.285Z,19.92
2023-05-09T22:27:47.822Z,19.98
2023-05-09T22:30:16.160Z,19.94
2023-05-09T22:32:44.329Z,19.94
2023-05-09T22:35:11.998Z,19.93
2023-05-09T22:37:39.643Z,19.99
2023-05-09T22:40:10.826Z,19.89
2023-05-09T22:42:41.252Z,19.94
2023-05-09T22:45:11.371Z,19.86
2023-05-09T22:47:39.364Z,19.84
2023-05-09T22:50:10.492Z,19.77
2023-05-09T22:52:38.187Z,19.73
2023-05-09T22:55:08.463Z,19.73
2023-05-09T22:57:36.069Z,19.76
2023-05-09T23:00:07.094Z,19.81
2023-05-09T23:02:35.093Z,19.71
2023-05-09T23:05:03.197Z,19.72
2023-05-09T23:07:31.196Z,19.70
2023-05-09T23:09:59.301Z,19.71
2023-05-09T23:12:27.236Z,19.73
2023-05-09T23:14:55.087Z,19.72
2023-05-09T23:17:23.045Z,19.67
2023-05-09T23:19:50.154Z,19.67
2023-05-09T23:22:17.896Z,19.64
2023-05-09T23:24:45.281Z,19.63
2023-05-09T23:27:19.938Z,19.57
2023-05-09T23:29:48.090Z,19.60
2023-05-09T23:32:16.273Z,19.62
2023-05-09T23:34:44.602Z,19.63
2023-05-09T23:37:12.087Z,19.66
2023-05-09T23:39:39.885Z,19.63
2023-05-09T23:42:08.112Z,19.68
2023-05-09T23:44:36.123Z,19.68
2023-05-09T23:47:04.619Z,19.70
2023-05-09T23:49:32.162Z,19.62
2023-05-09T23:51:59.965Z,19.58
2023-05-09T23:54:33.579Z,19.59
2023-05-09T23:57:01.291Z,19.61
2023-05-09T23:59:29.161Z,19.61
